Time;durP1;ratioP1;P1;durP2;ratioP2;P2;SDS_P1;SDS_P2;PMS_P1;PMS_P2;Temp;Humidity;BMP_temperature;BMP_pressure;BME280_temperature;BME280_humidity;BME280_pressure;Samples;Min_cycle;Max_cycle;Signal;HPM_P1;HPM_P2
2023/07/28 00:02:00;;;;;;;;;;;;;;;;;;5076257;28;19924;-94
2023/07/28 00:04:26;;;;;;;;;;;;;;;;;;5076836;28;19974;-90
2023/07/28 00:06:52;;;;;;;;;;;;;;;;;;5093049;28;19999;-90
2023/07/28 00:09:18;;;;;;;;;;;;;;;;;;5093171;28;19963;-90
2023/07/28 00:11:44;;;;;;;;;;;;;;;;;;5076361;28;19927;-91
2023/07/28 00:14:10;;;;;;;;;;;;;;;;;;5093198;28;19923;-91
2023/07/28 00:16:36;;;;;;;;;;;;;;;;;;5093091;28;19969;-91
2023/07/28 00:19:02;;;;;;;;;;;;;;;;;;5092991;28;19978;-91
2023/07/28 00:21:28;;;;;;;;;;;;;;;;;;5093077;28;19925;-91
2023/07/28 00:23:54;;;;;;;;;;;;;;;;;;5094413;28;19943;-90
2023/07/28 00:26:20;;;;;;;;;;;;;;;;;;5092913;28;20383;-91
2023/07/28 00:28:46;;;;;;;;;;;;;;;;;;5094452;28;19920;-92
2023/07/28 00:31:12;;;;;;;;;;;;;;;;;;5094440;28;19920;-92
2023/07/28 00:33:38;;;;;;;;;;;;;;;;;;5092729;28;20019;-91
2023/07/28 00:36:04;;;;;;;;;;;;;;;;;;5092839;28;19973;-90
2023/07/28 00:38:30;;;;;;;;;;;;;;;;;;5076072;28;19920;-91
2023/07/28 00:40:56;;;;;;;;;;;;;;;;;;5076004;28;19924;-92
2023/07/28 00:43:22;;;;;;;;;;;;;;;;;;5094373;28;20027;-91
2023/07/28 00:45:48;;;;;;;;;;;;;;;;;;5076161;28;19927;-92
2023/07/28 00:48:13;;;;;;;;;;;;;;;;;;5076089;28;20240;-91
2023/07/28 00:50:39;;;;;;;;;;;;;;;;;;5094013;28;19920;-90
2023/07/28 00:53:05;;;;;;;;;;;;;;;;;;5094292;28;19924;-92
2023/07/28 00:55:31;;;;;;;;;;;;;;;;;;5075505;28;19924;-91
2023/07/28 00:57:57;;;;;;;;;;;;;;;;;;5094286;28;19924;-92
2023/07/28 01:00:23;;;;;;;;;;;;;;;;;;5075660;28;19920;-92
2023/07/28 01:02:49;;;;;;;;;;;;;;;;;;5092521;28;19931;-92
2023/07/28 01:05:15;;;;;;;;;;;;;;;;;;5092560;28;19985;-91
2023/07/28 01:07:41;;;;;;;;;;;;;;;;;;5075241;28;19920;-91
2023/07/28 01:10:07;;;;;;;;;;;;;;;;;;5075309;28;19974;-91
2023/07/28 01:12:33;;;;;;;;;;;;;;;;;;5091997;28;19927;-91
2023/07/28 01:14:59;;;;;;;;;;;;;;;;;;5074919;28;20290;-91
2023/07/28 01:17:24;;;;;;;;;;;;;;;;;;5093435;28;20442;-91
2023/07/28 01:19:50;;;;;;;;;;;;;;;;;;5091850;28;19921;-91
2023/07/28 01:22:17;;;;;;;;;;;;;;;;;;5093117;28;19928;-91
2023/07/28 01:24:43;;;;;;;;;;;;;;;;;;5074824;28;19927;-91
2023/07/28 01:27:09;;;;;;;;;;;;;;;;;;5092165;28;19919;-91
2023/07/28 01:29:35;;;;;;;;;;;;;;;;;;5075073;28;19927;-91
2023/07/28 01:32:01;;;;;;;;;;;;;;;;;;5074953;28;19981;-91
2023/07/28 01:34:27;;;;;;;;;;;;;;;;;;5075083;28;19928;-91
2023/07/28 01:36:52;;;;;;;;;;;;;;;;;;5092124;28;20100;-91
2023/07/28 01:39:18;;;;;;;;;;;;;;;;;;5074756;28;19920;-92
2023/07/28 01:41:44;;;;;;;;;;;;;;;;;;5091621;28;19950;-91
2023/07/28 01:44:10;;;;;;;;;;;;;;;;;;5091898;28;19931;-92
2023/07/28 01:46:36;;;;;;;;;;;;;;;;;;5074990;28;20232;-92
2023/07/28 01:49:02;;;;;;;;;;;;;;;;;;5091839;28;19920;-91
2023/07/28 01:51:28;;;;;;;;;;;;;;;;;;5092952;28;20447;-91
2023/07/28 01:53:54;;;;;;;;;;;;;;;;;;5091402;28;19964;-91
2023/07/28 01:56:20;;;;;;;;;;;;;;;;;;5074259;28;19971;-91
2023/07/28 01:58:46;;;;;;;;;;;;;;;;;;5091767;28;19974;-91
2023/07/28 02:01:12;;;;;;;;;;;;;;;;;;5092044;28;20403;-92
2023/07/28 02:03:38;;;;;;;;;;;;;;;;;;5074779;28;19958;-92
2023/07/28 02:06:04;;;;;;;;;;;;;;;;;;5091568;28;19962;-92
2023/07/28 02:08:29;;;;;;;;;;;;;;;;;;5091502;28;19920;-91
2023/07/28 02:10:55;;;;;;;;;;;;;;;;;;5075319;28;19926;-91
2023/07/28 02:13:21;;;;;;;;;;;;;;;;;;5074968;28;19920;-92
2023/07/28 02:15:47;;;;;;;;;;;;;;;;;;5075159;28;20367;-91
2023/07/28 02:18:13;;;;;;;;;;;;;;;;;;5092618;28;20425;-92
2023/07/28 02:20:39;;;;;;;;;;;;;;;;;;5091976;28;20003;-92
2023/07/28 02:23:05;;;;;;;;;;;;;;;;;;5074878;28;19979;-92
2023/07/28 02:25:31;;;;;;;;;;;;;;;;;;5094763;28;19928;-91
2023/07/28 02:27:57;;;;;;;;;;;;;;;;;;5097639;28;19924;-91
2023/07/28 02:30:23;;;;;;;;;;;;;;;;;;5096088;28;19924;-91
2023/07/28 02:32:49;;;;;;;;;;;;;;;;;;5096531;28;20382;-92
2023/07/28 02:35:15;;;;;;;;;;;;;;;;;;5079094;28;20037;-91
2023/07/28 02:37:41;;;;;;;;;;;;;;;;;;5095373;28;19980;-91
2023/07/28 02:40:07;;;;;;;;;;;;;;;;;;5078328;28;19920;-90
2023/07/28 02:42:35;;;;;;;;;;;;;;;;;;5095300;28;19931;-93
2023/07/28 02:45:01;;;;;;;;;;;;;;;;;;5079027;28;20058;-92
2023/07/28 02:47:26;;;;;;;;;;;;;;;;;;5096325;28;20417;-93
2023/07/28 02:49:52;;;;;;;;;;;;;;;;;;5095308;28;19973;-92
2023/07/28 02:52:18;;;;;;;;;;;;;;;;;;5096249;28;19924;-92
2023/07/28 02:54:44;;;;;;;;;;;;;;;;;;5078467;28;20033;-92
2023/07/28 02:57:10;;;;;;;;;;;;;;;;;;5094924;28;19924;-93
2023/07/28 02:59:36;;;;;;;;;;;;;;;;;;5078160;28;20018;-92
2023/07/28 03:02:02;;;;;;;;;;;;;;;;;;5094951;28;19924;-93
2023/07/28 03:04:28;;;;;;;;;;;;;;;;;;5095188;28;19920;-92
2023/07/28 03:06:54;;;;;;;;;;;;;;;;;;5094852;28;19919;-93
2023/07/28 03:09:20;;;;;;;;;;;;;;;;;;5095407;28;19920;-92
2023/07/28 03:11:46;;;;;;;;;;;;;;;;;;5078257;28;19939;-93
2023/07/28 03:14:12;;;;;;;;;;;;;;;;;;5095043;28;19920;-92
2023/07/28 03:16:38;;;;;;;;;;;;;;;;;;5096172;28;19927;-93
2023/07/28 03:19:04;;;;;;;;;;;;;;;;;;5094960;28;19920;-93
2023/07/28 03:21:31;;;;;;;;;;;;;;;;;;5095852;28;19931;-93
2023/07/28 03:23:57;;;;;;;;;;;;;;;;;;5077996;28;19927;-92
2023/07/28 03:26:23;;;;;;;;;;;;;;;;;;5096086;28;19920;-93
2023/07/28 03:28:49;;;;;;;;;;;;;;;;;;5094609;28;20345;-93
2023/07/28 03:31:14;;;;;;;;;;;;;;;;;;5077428;28;19969;-91
2023/07/28 03:33:40;;;;;;;;;;;;;;;;;;5094055;28;19924;-92
2023/07/28 03:36:06;;;;;;;;;;;;;;;;;;5093434;28;19924;-90
2023/07/28 03:38:32;;;;;;;;;;;;;;;;;;5094429;28;19990;-92
2023/07/28 03:40:58;;;;;;;;;;;;;;;;;;5077796;28;20336;-94
2023/07/28 03:43:24;;;;;;;;;;;;;;;;;;5094410;28;19924;-92
2023/07/28 03:45:51;;;;;;;;;;;;;;;;;;5077563;28;19967;-93
2023/07/28 03:48:17;;;;;;;;;;;;;;;;;;5094407;28;20003;-94
2023/07/28 03:50:43;;;;;;;;;;;;;;;;;;5077537;28;19970;-92
2023/07/28 03:53:09;;;;;;;;;;;;;;;;;;5077582;28;19920;-93
2023/07/28 03:55:35;;;;;;;;;;;;;;;;;;5094061;28;20007;-93
2023/07/28 03:58:01;;;;;;;;;;;;;;;;;;5077196;28;20015;-94
2023/07/28 04:00:27;;;;;;;;;;;;;;;;;;5076964;28;19951;-92
2023/07/28 04:02:53;;;;;;;;;;;;;;;;;;5076729;28;19924;-92
2023/07/28 04:05:19;;;;;;;;;;;;;;;;;;5077128;28;19920;-92
2023/07/28 04:07:45;;;;;;;;;;;;;;;;;;5077342;28;19985;-94
2023/07/28 04:10:11;;;;;;;;;;;;;;;;;;5093655;28;20287;-92
2023/07/28 04:12:37;;;;;;;;;;;;;;;;;;5076708;28;20363;-92
2023/07/28 04:15:03;;;;;;;;;;;;;;;;;;5093631;28;20006;-92
2023/07/28 04:17:29;;;;;;;;;;;;;;;;;;5093698;28;19924;-93
2023/07/28 04:19:55;;;;;;;;;;;;;;;;;;5093818;28;20325;-92
2023/07/28 04:22:21;;;;;;;;;;;;;;;;;;5093825;28;19924;-91
2023/07/28 04:24:47;;;;;;;;;;;;;;;;;;5076518;28;19920;-90
2023/07/28 04:27:13;;;;;;;;;;;;;;;;;;5093343;28;19920;-91
2023/07/28 04:29:42;;;;;;;;;;;;;;;;;;5094253;28;20444;-91
2023/07/28 04:32:08;;;;;;;;;;;;;;;;;;5094189;28;19959;-91
2023/07/28 04:34:34;;;;;;;;;;;;;;;;;;5096315;28;19931;-92
2023/07/28 04:37:00;;;;;;;;;;;;;;;;;;5096895;28;19970;-91
2023/07/28 04:39:26;;;;;;;;;;;;;;;;;;5096457;28;19939;-93
2023/07/28 04:41:52;;;;;;;;;;;;;;;;;;5096552;28;20367;-92
2023/07/28 04:44:18;;;;;;;;;;;;;;;;;;5096547;28;19995;-92
2023/07/28 04:46:43;;;;;;;;;;;;;;;;;;5096273;28;20049;-93
2023/07/28 04:49:09;;;;;;;;;;;;;;;;;;5095185;28;19924;-93
2023/07/28 04:51:35;;;;;;;;;;;;;;;;;;5096659;28;19919;-93
2023/07/28 04:54:01;;;;;;;;;;;;;;;;;;5096567;28;19920;-92
2023/07/28 04:56:27;;;;;;;;;;;;;;;;;;5112944;28;19987;-93
2023/07/28 04:58:53;;;;;;;;;;;;;;;;;;5113260;28;19920;-92
2023/07/28 05:01:19;;;;;;;;;;;;;;;;;;5112686;28;20014;-91
2023/07/28 05:03:45;;;;;;;;;;;;;;;;;;5095611;28;19919;-93
2023/07/28 05:06:11;;;;;;;;;;;;;;;;;;5095899;28;19963;-93
2023/07/28 05:08:37;;;;;;;;;;;;;;;;;;5113247;28;19923;-93
2023/07/28 05:11:03;;;;;;;;;;;;;;;;;;5113108;28;19920;-93
2023/07/28 05:13:29;;;;;;;;;;;;;;;;;;5113349;28;19920;-92
2023/07/28 05:15:55;;;;;;;;;;;;;;;;;;5095679;28;20354;-93
2023/07/28 05:18:21;;;;;;;;;;;;;;;;;;5095961;28;20309;-92
2023/07/28 05:20:47;;;;;;;;;;;;;;;;;;5096042;28;19965;-93
2023/07/28 05:23:13;;;;;;;;;;;;;;;;;;5095549;28;19924;-93
2023/07/28 05:25:38;;;;;;;;;;;;;;;;;;5113540;28;19920;-92
2023/07/28 05:28:04;;;;;;;;;;;;;;;;;;5095329;28;20006;-92
2023/07/28 05:30:30;;;;;;;;;;;;;;;;;;5095344;28;19970;-91
2023/07/28 05:32:56;;;;;;;;;;;;;;;;;;5095630;28;19919;-93
2023/07/28 05:35:22;;;;;;;;;;;;;;;;;;5095794;28;19920;-92
2023/07/28 05:37:48;;;;;;;;;;;;;;;;;;5095310;28;19927;-93
2023/07/28 05:40:14;;;;;;;;;;;;;;;;;;5095335;28;20379;-92
2023/07/28 05:42:40;;;;;;;;;;;;;;;;;;5112736;28;19924;-92
2023/07/28 05:45:06;;;;;;;;;;;;;;;;;;5095539;28;20375;-93
2023/07/28 05:47:32;;;;;;;;;;;;;;;;;;5095627;28;19924;-93
2023/07/28 05:49:58;;;;;;;;;;;;;;;;;;5095423;28;19920;-92
2023/07/28 05:52:24;;;;;;;;;;;;;;;;;;5095338;28;19920;-92
2023/07/28 05:54:50;;;;;;;;;;;;;;;;;;5095397;28;19942;-92
2023/07/28 05:57:15;;;;;;;;;;;;;;;;;;5095283;28;19930;-94
2023/07/28 05:59:41;;;;;;;;;;;;;;;;;;5094791;28;20355;-92
2023/07/28 06:02:08;;;;;;;;;;;;;;;;;;5095404;28;20219;-92
2023/07/28 06:04:34;;;;;;;;;;;;;;;;;;5094732;28;19919;-92
2023/07/28 06:06:59;;;;;;;;;;;;;;;;;;5112110;28;20283;-93
2023/07/28 06:09:25;;;;;;;;;;;;;;;;;;5094786;28;19928;-92
2023/07/28 06:11:51;;;;;;;;;;;;;;;;;;5112066;28;19920;-92
2023/07/28 06:14:17;;;;;;;;;;;;;;;;;;5111445;28;20007;-91
2023/07/28 06:16:43;;;;;;;;;;;;;;;;;;5111956;28;19932;-92
2023/07/28 06:19:09;;;;;;;;;;;;;;;;;;5095093;28;19919;-91
2023/07/28 06:21:35;;;;;;;;;;;;;;;;;;5111649;28;19924;-92
2023/07/28 06:24:01;;;;;;;;;;;;;;;;;;5094746;28;19919;-92
2023/07/28 06:26:27;;;;;;;;;;;;;;;;;;5112405;28;20354;-92
2023/07/28 06:28:53;;;;;;;;;;;;;;;;;;5094873;28;19919;-92
2023/07/28 06:31:18;;;;;;;;;;;;;;;;;;5092986;28;19924;-92
2023/07/28 06:33:44;;;;;;;;;;;;;;;;;;5111451;28;19920;-94
2023/07/28 06:36:11;;;;;;;;;;;;;;;;;;5111338;28;19926;-91
2023/07/28 06:38:38;;;;;;;;;;;;;;;;;;5111458;28;20294;-92
2023/07/28 06:41:04;;;;;;;;;;;;;;;;;;5094419;28;19919;-92
2023/07/28 06:43:30;;;;;;;;;;;;;;;;;;5111592;28;19988;-92
2023/07/28 06:45:56;;;;;;;;;;;;;;;;;;5094465;28;19923;-92
2023/07/28 06:48:22;;;;;;;;;;;;;;;;;;5111228;28;19988;-92
2023/07/28 06:50:48;;;;;;;;;;;;;;;;;;5111472;28;19926;-92
2023/07/28 06:53:14;;;;;;;;;;;;;;;;;;5094196;28;20032;-92
2023/07/28 06:55:40;;;;;;;;;;;;;;;;;;5094411;28;19969;-92
2023/07/28 06:58:06;;;;;;;;;;;;;;;;;;5093994;28;19962;-90
2023/07/28 07:00:32;;;;;;;;;;;;;;;;;;5093795;28;19998;-91
2023/07/28 07:02:59;;;;;;;;;;;;;;;;;;5110754;28;19928;-91
2023/07/28 07:05:25;;;;;;;;;;;;;;;;;;5094289;28;19920;-90
2023/07/28 07:07:52;;;;;;;;;;;;;;;;;;5093698;28;19919;-91
2023/07/28 07:10:18;;;;;;;;;;;;;;;;;;5093894;28;20359;-91
2023/07/28 07:12:44;;;;;;;;;;;;;;;;;;5114632;28;19926;-91
2023/07/28 07:15:11;;;;;;;;;;;;;;;;;;5115875;28;19927;-90
2023/07/28 07:17:37;;;;;;;;;;;;;;;;;;5097192;28;20359;-91
2023/07/28 07:20:05;;;;;;;;;;;;;;;;;;5114662;28;20033;-91
2023/07/28 07:22:31;;;;;;;;;;;;;;;;;;5097362;28;19927;-91
2023/07/28 07:24:57;;;;;;;;;;;;;;;;;;5114313;28;19927;-91
2023/07/28 07:27:23;;;;;;;;;;;;;;;;;;5114381;28;19924;-91
2023/07/28 07:29:49;;;;;;;;;;;;;;;;;;5097037;28;19920;-90
2023/07/28 07:32:16;;;;;;;;;;;;;;;;;;5115830;28;19994;-91
2023/07/28 07:34:42;;;;;;;;;;;;;;;;;;5114109;28;19926;-90
2023/07/28 07:37:08;;;;;;;;;;;;;;;;;;5115284;28;20007;-90
2023/07/28 07:39:36;;;;;;;;;;;;;;;;;;5096729;28;19927;-89
2023/07/28 07:42:01;;;;;;;;;;;;;;;;;;5096413;28;19928;-90
2023/07/28 07:44:31;;;;;;;;;;;;;;;;;;5097730;28;19920;-95
2023/07/28 07:46:57;;;;;;;;;;;;;;;;;;5097391;28;20195;-91
2023/07/28 07:49:23;;;;;;;;;;;;;;;;;;5096855;28;19926;-91
2023/07/28 07:51:49;;;;;;;;;;;;;;;;;;5115204;28;19923;-92
2023/07/28 07:54:18;;;;;;;;;;;;;;;;;;5113672;28;19919;-89
2023/07/28 07:56:44;;;;;;;;;;;;;;;;;;5096065;28;19924;-89
2023/07/28 07:59:10;;;;;;;;;;;;;;;;;;5113325;28;19926;-89
2023/07/28 08:01:35;;;;;;;;;;;;;;;;;;5096257;28;19924;-88
2023/07/28 08:04:01;;;;;;;;;;;;;;;;;;5096667;28;19920;-88
2023/07/28 08:06:28;;;;;;;;;;;;;;;;;;5096512;28;20339;-87
2023/07/28 08:08:56;;;;;;;;;;;;;;;;;;5114581;28;19920;-87
2023/07/28 08:11:22;;;;;;;;;;;;;;;;;;5096678;28;19927;-87
2023/07/28 08:13:48;;;;;;;;;;;;;;;;;;5113400;28;20288;-87
2023/07/28 08:16:14;;;;;;;;;;;;;;;;;;5114595;28;19955;-86
2023/07/28 08:18:40;;;;;;;;;;;;;;;;;;5113267;28;20291;-89
2023/07/28 08:21:06;;;;;;;;;;;;;;;;;;5096208;28;19931;-89
2023/07/28 08:23:32;;;;;;;;;;;;;;;;;;5112759;28;19920;-88
2023/07/28 08:25:58;;;;;;;;;;;;;;;;;;5113164;28;19919;-88
2023/07/28 08:28:24;;;;;;;;;;;;;;;;;;5114478;28;20028;-89
2023/07/28 08:30:51;;;;;;;;;;;;;;;;;;5096185;28;20039;-87
2023/07/28 08:33:17;;;;;;;;;;;;;;;;;;5095757;28;19998;-87
2023/07/28 08:35:43;;;;;;;;;;;;;;;;;;5112698;28;20011;-87
2023/07/28 08:38:09;;;;;;;;;;;;;;;;;;5112459;28;20287;-87
2023/07/28 08:40:35;;;;;;;;;;;;;;;;;;5114230;28;19920;-87
2023/07/28 08:43:01;;;;;;;;;;;;;;;;;;5112906;28;20022;-87
2023/07/28 08:45:28;;;;;;;;;;;;;;;;;;5112903;28;20251;-87
2023/07/28 08:47:53;;;;;;;;;;;;;;;;;;5095373;28;19920;-88
2023/07/28 08:50:20;;;;;;;;;;;;;;;;;;5095477;28;19923;-88
2023/07/28 08:52:45;;;;;;;;;;;;;;;;;;5112294;28;20111;-87
2023/07/28 08:55:13;;;;;;;;;;;;;;;;;;5096170;28;19955;-87
2023/07/28 08:57:39;;;;;;;;;;;;;;;;;;5074615;28;19978;-87
2023/07/28 09:00:05;;;;;;;;;;;;;;;;;;5075066;28;19924;-89
2023/07/28 09:02:31;;;;;;;;;;;;;;;;;;5106670;28;19924;-87
2023/07/28 09:04:57;;;;;;;;;;;;;;;;;;5111886;28;20332;-87
2023/07/28 09:07:23;;;;;;;;;;;;;;;;;;5113273;28;19924;-88
2023/07/28 09:09:49;;;;;;;;;;;;;;;;;;5112063;28;19919;-89
2023/07/28 09:12:15;;;;;;;;;;;;;;;;;;5113437;28;20327;-87
2023/07/28 09:14:41;;;;;;;;;;;;;;;;;;5111945;28;20039;-86
2023/07/28 09:17:07;;;;;;;;;;;;;;;;;;5111601;28;19931;-89
2023/07/28 09:19:33;;;;;;;;;;;;;;;;;;5094906;28;19949;-87
2023/07/28 09:21:59;;;;;;;;;;;;;;;;;;5111625;28;19928;-87
2023/07/28 09:24:25;;;;;;;;;;;;;;;;;;5112044;28;19952;-87
2023/07/28 09:26:51;;;;;;;;;;;;;;;;;;5094393;28;20371;-88
2023/07/28 09:29:17;;;;;;;;;;;;;;;;;;5111900;28;19974;-88
2023/07/28 09:31:43;;;;;;;;;;;;;;;;;;5113042;28;20014;-88
2023/07/28 09:34:09;;;;;;;;;;;;;;;;;;5093887;28;19924;-93
2023/07/28 09:36:35;;;;;;;;;;;;;;;;;;5109951;28;19984;-92
2023/07/28 09:39:01;;;;;;;;;;;;;;;;;;5095642;28;19969;-90
2023/07/28 09:41:27;;;;;;;;;;;;;;;;;;5111586;28;20321;-89
2023/07/28 09:43:53;;;;;;;;;;;;;;;;;;5094387;28;19915;-88
2023/07/28 09:46:19;;;;;;;;;;;;;;;;;;5111647;28;19970;-88
2023/07/28 09:48:45;;;;;;;;;;;;;;;;;;5111050;28;19920;-88
2023/07/28 09:51:11;;;;;;;;;;;;;;;;;;5111354;28;19924;-88
2023/07/28 09:53:37;;;;;;;;;;;;;;;;;;5111499;28;19927;-88
2023/07/28 09:56:03;;;;;;;;;;;;;;;;;;5111172;28;19932;-88
2023/07/28 09:58:29;;;;;;;;;;;;;;;;;;5094425;28;20010;-87
2023/07/28 10:00:55;;;;;;;;;;;;;;;;;;5111510;28;19920;-89
2023/07/28 10:03:21;;;;;;;;;;;;;;;;;;5094083;28;19983;-90
2023/07/28 10:05:47;;;;;;;;;;;;;;;;;;5110972;28;20272;-89
2023/07/28 10:08:13;;;;;;;;;;;;;;;;;;5094115;28;19920;-90
2023/07/28 10:10:38;;;;;;;;;;;;;;;;;;5112454;28;19919;-90
2023/07/28 10:13:04;;;;;;;;;;;;;;;;;;5094876;28;19927;-91
2023/07/28 10:15:30;;;;;;;;;;;;;;;;;;5094576;28;20262;-88
2023/07/28 10:17:59;;;;;;;;;;;;;;;;;;5111058;28;20006;-92
2023/07/28 10:20:25;;;;;;;;;;;;;;;;;;5093923;28;19923;-90
2023/07/28 10:22:51;;;;;;;;;;;;;;;;;;5111185;28;19931;-89
2023/07/28 10:25:17;;;;;;;;;;;;;;;;;;5111156;28;19924;-89
2023/07/28 10:27:43;;;;;;;;;;;;;;;;;;5093537;28;20012;-88
2023/07/28 10:30:11;;;;;;;;;;;;;;;;;;5093871;28;20397;-88
2023/07/28 10:32:38;;;;;;;;;;;;;;;;;;5094189;28;20316;-88
2023/07/28 10:35:05;;;;;;;;;;;;;;;;;;5111167;28;19926;-88
2023/07/28 10:37:30;;;;;;;;;;;;;;;;;;5093743;28;19924;-90
2023/07/28 10:39:56;;;;;;;;;;;;;;;;;;5111251;28;20022;-88
2023/07/28 10:42:23;;;;;;;;;;;;;;;;;;5112032;28;19932;-87
2023/07/28 10:44:49;;;;;;;;;;;;;;;;;;5110753;28;19985;-87
2023/07/28 10:47:17;;;;;;;;;;;;;;;;;;5114430;28;19924;-87
2023/07/28 10:49:43;;;;;;;;;;;;;;;;;;5115008;28;20011;-87
2023/07/28 10:52:09;;;;;;;;;;;;;;;;;;5114871;28;19919;-87
2023/07/28 10:54:35;;;;;;;;;;;;;;;;;;5097763;28;20484;-87
2023/07/28 10:57:01;;;;;;;;;;;;;;;;;;5115909;28;19950;-87
2023/07/28 10:59:27;;;;;;;;;;;;;;;;;;5097906;28;19968;-87
2023/07/28 11:01:53;;;;;;;;;;;;;;;;;;5114808;28;19988;-87
2023/07/28 11:04:19;;;;;;;;;;;;;;;;;;5117310;28;20378;-87
2023/07/28 11:06:45;;;;;;;;;;;;;;;;;;5114391;28;19920;-87
2023/07/28 11:09:11;;;;;;;;;;;;;;;;;;5114766;28;19919;-87
2023/07/28 11:11:37;;;;;;;;;;;;;;;;;;5114373;28;19923;-87
2023/07/28 11:14:03;;;;;;;;;;;;;;;;;;5114440;28;19920;-87
2023/07/28 11:16:29;;;;;;;;;;;;;;;;;;5115795;28;19967;-87
2023/07/28 11:18:54;;;;;;;;;;;;;;;;;;5115781;28;19920;-87
2023/07/28 11:21:20;;;;;;;;;;;;;;;;;;5097371;28;19927;-87
2023/07/28 11:23:46;;;;;;;;;;;;;;;;;;5115808;28;19931;-87
2023/07/28 11:26:12;;;;;;;;;;;;;;;;;;5115738;28;19927;-86
2023/07/28 11:28:38;;;;;;;;;;;;;;;;;;5114510;28;20287;-87
2023/07/28 11:31:04;;;;;;;;;;;;;;;;;;5114442;28;20391;-87
2023/07/28 11:33:30;;;;;;;;;;;;;;;;;;5115641;28;20011;-87
2023/07/28 11:35:56;;;;;;;;;;;;;;;;;;5097121;28;19924;-87
2023/07/28 11:38:22;;;;;;;;;;;;;;;;;;5113862;28;20263;-87
2023/07/28 11:40:48;;;;;;;;;;;;;;;;;;5113894;28;19973;-86
2023/07/28 11:43:14;;;;;;;;;;;;;;;;;;5113805;28;19974;-87
2023/07/28 11:45:40;;;;;;;;;;;;;;;;;;5111819;28;19994;-87
2023/07/28 11:48:06;;;;;;;;;;;;;;;;;;5115228;28;19924;-87
2023/07/28 11:50:32;;;;;;;;;;;;;;;;;;5113601;28;20359;-87
2023/07/28 11:52:58;;;;;;;;;;;;;;;;;;5096599;28;20430;-86
2023/07/28 11:55:24;;;;;;;;;;;;;;;;;;5113718;28;20006;-90
2023/07/28 11:57:50;;;;;;;;;;;;;;;;;;5112946;28;19919;-89
2023/07/28 12:00:16;;;;;;;;;;;;;;;;;;5096081;28;19973;-90
2023/07/28 12:02:42;;;;;;;;;;;;;;;;;;5096379;28;20375;-91
2023/07/28 12:05:08;;;;;;;;;;;;;;;;;;5096418;28;19927;-92
2023/07/28 12:07:35;;;;;;;;;;;;;;;;;;5096466;28;19920;-91
2023/07/28 12:10:01;;;;;;;;;;;;;;;;;;5114671;28;20398;-92
2023/07/28 12:12:28;;;;;;;;;;;;;;;;;;5114496;28;20083;-90
2023/07/28 12:14:54;;;;;;;;;;;;;;;;;;5096279;28;19923;-92
2023/07/28 12:17:20;;;;;;;;;;;;;;;;;;5113243;28;19922;-91
2023/07/28 12:19:46;;;;;;;;;;;;;;;;;;5113121;28;20351;-93
2023/07/28 12:22:12;;;;;;;;;;;;;;;;;;5113205;28;19924;-91
2023/07/28 12:24:39;;;;;;;;;;;;;;;;;;5113468;28;19985;-92
2023/07/28 12:27:05;;;;;;;;;;;;;;;;;;5096134;28;19927;-92
2023/07/28 12:29:31;;;;;;;;;;;;;;;;;;5095797;28;19923;-91
2023/07/28 12:31:57;;;;;;;;;;;;;;;;;;5095660;28;19930;-90
2023/07/28 12:34:23;;;;;;;;;;;;;;;;;;5095703;28;20384;-91
2023/07/28 12:36:50;;;;;;;;;;;;;;;;;;5095764;28;20290;-90
2023/07/28 12:39:16;;;;;;;;;;;;;;;;;;5095975;28;19924;-91
2023/07/28 12:41:58;;;;;;;;;;;;;;;;;;5113057;28;19923;-96
2023/07/28 12:44:24;;;;;;;;;;;;;;;;;;5096103;28;19920;-94
2023/07/28 12:46:50;;;;;;;;;;;;;;;;;;5095918;28;19920;-90
2023/07/28 12:49:19;;;;;;;;;;;;;;;;;;5095437;28;19996;-91
2023/07/28 12:51:44;;;;;;;;;;;;;;;;;;5095691;28;20003;-89
2023/07/28 12:54:10;;;;;;;;;;;;;;;;;;5112425;28;20339;-90
2023/07/28 12:56:36;;;;;;;;;;;;;;;;;;5113447;28;20376;-91
2023/07/28 12:59:02;;;;;;;;;;;;;;;;;;5112358;28;19920;-91
2023/07/28 13:01:28;;;;;;;;;;;;;;;;;;5095327;28;19916;-91
2023/07/28 13:03:54;;;;;;;;;;;;;;;;;;5095561;28;19924;-92
2023/07/28 13:06:22;;;;;;;;;;;;;;;;;;5094992;28;22142;-91
2023/07/28 13:08:48;;;;;;;;;;;;;;;;;;5111162;28;20046;-91
2023/07/28 13:11:14;;;;;;;;;;;;;;;;;;5095088;28;19963;-89
2023/07/28 13:13:40;;;;;;;;;;;;;;;;;;5095694;28;19920;-92
2023/07/28 13:16:06;;;;;;;;;;;;;;;;;;5112631;28;20428;-88
2023/07/28 13:18:32;;;;;;;;;;;;;;;;;;5113437;28;19923;-88
2023/07/28 13:20:58;;;;;;;;;;;;;;;;;;5094828;28;20312;-88
2023/07/28 13:23:24;;;;;;;;;;;;;;;;;;5112894;28;20244;-88
2023/07/28 13:25:50;;;;;;;;;;;;;;;;;;5111463;28;19920;-89
2023/07/28 13:28:16;;;;;;;;;;;;;;;;;;5111621;28;19920;-88
2023/07/28 13:30:42;;;;;;;;;;;;;;;;;;5111440;28;19920;-89
2023/07/28 13:33:08;;;;;;;;;;;;;;;;;;5094679;28;19920;-88
2023/07/28 13:35:34;;;;;;;;;;;;;;;;;;5112998;28;20322;-89
2023/07/28 13:38:00;;;;;;;;;;;;;;;;;;5111107;28;19923;-90
2023/07/28 13:40:26;;;;;;;;;;;;;;;;;;5094366;28;19926;-89
2023/07/28 13:42:52;;;;;;;;;;;;;;;;;;5094216;28;19986;-94
2023/07/28 13:45:18;;;;;;;;;;;;;;;;;;5111690;28;19927;-91
2023/07/28 13:47:44;;;;;;;;;;;;;;;;;;5111326;28;20274;-91
2023/07/28 13:50:10;;;;;;;;;;;;;;;;;;5094381;28;20257;-91
2023/07/28 13:52:36;;;;;;;;;;;;;;;;;;5094731;28;20263;-91
2023/07/28 13:55:04;;;;;;;;;;;;;;;;;;5094219;28;19923;-91
2023/07/28 13:57:30;;;;;;;;;;;;;;;;;;5111336;28;19919;-91
2023/07/28 13:59:56;;;;;;;;;;;;;;;;;;5111569;28;20026;-91
2023/07/28 14:02:22;;;;;;;;;;;;;;;;;;5093812;28;20014;-90
2023/07/28 14:04:48;;;;;;;;;;;;;;;;;;5094119;28;19948;-88
2023/07/28 14:07:14;;;;;;;;;;;;;;;;;;5112624;28;20010;-89
2023/07/28 14:09:41;;;;;;;;;;;;;;;;;;5111010;28;19926;-89
2023/07/28 14:12:07;;;;;;;;;;;;;;;;;;5094599;28;19924;-90
2023/07/28 14:14:33;;;;;;;;;;;;;;;;;;5094370;28;19983;-89
2023/07/28 14:16:59;;;;;;;;;;;;;;;;;;5111174;28;19919;-90
2023/07/28 14:19:26;;;;;;;;;;;;;;;;;;5111088;28;19920;-89
2023/07/28 14:21:51;;;;;;;;;;;;;;;;;;5097642;28;19959;-90
2023/07/28 14:24:17;;;;;;;;;;;;;;;;;;5115247;28;19978;-90
2023/07/28 14:26:43;;;;;;;;;;;;;;;;;;5098297;28;20470;-89
2023/07/28 14:29:09;;;;;;;;;;;;;;;;;;5115196;28;20006;-88
2023/07/28 14:31:35;;;;;;;;;;;;;;;;;;5097683;28;19919;-88
2023/07/28 14:34:01;;;;;;;;;;;;;;;;;;5115030;28;19985;-86
2023/07/28 14:36:27;;;;;;;;;;;;;;;;;;5114670;28;19919;-87
2023/07/28 14:38:53;;;;;;;;;;;;;;;;;;5115100;28;19926;-87
2023/07/28 14:41:19;;;;;;;;;;;;;;;;;;5115026;28;19927;-86
2023/07/28 14:43:45;;;;;;;;;;;;;;;;;;5114741;28;19919;-87
2023/07/28 14:46:11;;;;;;;;;;;;;;;;;;5116215;28;19942;-88
2023/07/28 14:48:37;;;;;;;;;;;;;;;;;;5114632;28;20375;-89
2023/07/28 14:51:03;;;;;;;;;;;;;;;;;;5114598;28;19927;-87
2023/07/28 14:53:29;;;;;;;;;;;;;;;;;;5097681;28;19920;-86
2023/07/28 14:55:55;;;;;;;;;;;;;;;;;;5115642;28;19924;-86
2023/07/28 14:58:21;;;;;;;;;;;;;;;;;;5114419;28;20383;-86
2023/07/28 15:00:46;;;;;;;;;;;;;;;;;;5097336;28;19923;-86
2023/07/28 15:03:12;;;;;;;;;;;;;;;;;;5097429;28;19924;-88
2023/07/28 15:05:38;;;;;;;;;;;;;;;;;;5114518;28;20128;-88
2023/07/28 15:08:04;;;;;;;;;;;;;;;;;;5115676;28;19969;-88
2023/07/28 15:10:30;;;;;;;;;;;;;;;;;;5114441;28;19923;-88
2023/07/28 15:12:56;;;;;;;;;;;;;;;;;;5114672;28;20625;-88
2023/07/28 15:15:22;;;;;;;;;;;;;;;;;;5098404;28;19920;-88
2023/07/28 15:17:48;;;;;;;;;;;;;;;;;;5114462;28;20006;-88
2023/07/28 15:20:16;;;;;;;;;;;;;;;;;;5114232;28;19920;-88
2023/07/28 15:22:42;;;;;;;;;;;;;;;;;;5115733;28;19993;-87
2023/07/28 15:25:08;;;;;;;;;;;;;;;;;;5115573;28;19919;-88
2023/07/28 15:27:34;;;;;;;;;;;;;;;;;;5115522;28;19920;-87
2023/07/28 15:30:00;;;;;;;;;;;;;;;;;;5097760;28;19927;-87
2023/07/28 15:32:26;;;;;;;;;;;;;;;;;;5113368;28;20432;-87
2023/07/28 15:34:52;;;;;;;;;;;;;;;;;;5114010;28;19924;-87
2023/07/28 15:37:18;;;;;;;;;;;;;;;;;;5113877;28;19946;-87
2023/07/28 15:39:43;;;;;;;;;;;;;;;;;;5114130;28;19920;-88
2023/07/28 15:42:09;;;;;;;;;;;;;;;;;;5115685;28;19923;-87
2023/07/28 15:44:35;;;;;;;;;;;;;;;;;;5097020;28;19920;-88
2023/07/28 15:47:01;;;;;;;;;;;;;;;;;;5115059;28;19927;-88
2023/07/28 15:49:27;;;;;;;;;;;;;;;;;;5113874;28;19924;-89
2023/07/28 15:51:53;;;;;;;;;;;;;;;;;;5115297;28;20333;-88
2023/07/28 15:54:19;;;;;;;;;;;;;;;;;;5113758;28;19920;-88
2023/07/28 15:56:45;;;;;;;;;;;;;;;;;;5113312;28;19947;-87
2023/07/28 15:59:11;;;;;;;;;;;;;;;;;;5113518;28;19920;-86
2023/07/28 16:01:37;;;;;;;;;;;;;;;;;;5096300;28;19931;-87
2023/07/28 16:04:03;;;;;;;;;;;;;;;;;;5114961;28;19923;-87
2023/07/28 16:06:29;;;;;;;;;;;;;;;;;;5114915;28;20022;-87
2023/07/28 16:08:55;;;;;;;;;;;;;;;;;;5114790;28;20333;-87
2023/07/28 16:11:20;;;;;;;;;;;;;;;;;;5113151;28;19919;-86
2023/07/28 16:13:46;;;;;;;;;;;;;;;;;;5113436;28;20276;-87
2023/07/28 16:16:12;;;;;;;;;;;;;;;;;;5114568;28;19920;-87
2023/07/28 16:18:38;;;;;;;;;;;;;;;;;;5113358;28;20327;-86
2023/07/28 16:21:04;;;;;;;;;;;;;;;;;;5114628;28;19951;-87
2023/07/28 16:23:30;;;;;;;;;;;;;;;;;;5114406;28;19924;-87
2023/07/28 16:25:56;;;;;;;;;;;;;;;;;;5113259;28;19919;-88
2023/07/28 16:28:22;;;;;;;;;;;;;;;;;;5114167;28;20011;-87
2023/07/28 16:30:48;;;;;;;;;;;;;;;;;;5112981;28;19968;-87
2023/07/28 16:33:14;;;;;;;;;;;;;;;;;;5114211;28;19923;-87
2023/07/28 16:35:40;;;;;;;;;;;;;;;;;;5112834;28;20092;-87
2023/07/28 16:38:06;;;;;;;;;;;;;;;;;;5112766;28;19923;-87